Whitecourt Airport
CYZU : now visible

Airfield :











YOU CAN JOIN US ON...

 
LOGIN :

Register | Disclaimer

   EN    FR    IT 

 









Legend :    VFR   Marginal VFR   IFR   Intensive IFR   Very Intensive IFR
Visi :
Ceiling :
>= 8 km
>= 3000ft
5 to 8 km
1000 to 3000 ft
1500m to 5 km
500 to 1000 ft
800 to 1500m
200 to 500 ft
< 800m
< 200 ft
Symbols :   Thunderstorms  Fog  Heavy snow  Heavy precipitations  Wind > 20 kt






- Airport Elevation : 2567 ft
- IATA code : YZU


CYZU - Whitecourt

CURRENT METAR :
  • 121807Z 08005KT 2SM -SN VV010 M14/M15 A2976 RMK SN8 SLP140

EXPIRED METARs :
  • 121800Z 09004KT 060V120 3SM -SN OVC012 M14/M15 A2976 RMK SC8 SLP140
  • 121700Z 08004KT 6SM -SN OVC012 M14/M15 A2975 RMK SC8 SLP136
  • 121600Z 11004KT 10SM -SN OVC012 M14/M15 A2973 RMK SC8 SLP129

TAF TAF CYZU
Valid from the 12 at 14:00 until the 12 at 23:00 UTC


121414Z 1214/1223 08005KT 4SM -SN BR OVC006
TEMPO 1214/1219 P6SM -SN OVC010
FM122100 09005KT 5SM -SN OVC012
BECMG 1221/1222 11/2SM -SN VV012
FM122200 09005KT 2SM -SN VV015
TEMPO 1222/1223 3/4SM -SN VV008 RMK NXT FCST BY 121900Z



MET'MAP, your aeronautical weather chart ! - Copyright ORBIFLY December 2007 - Disclaimer

ORBIFLY MET'MAP TEAM :

Programming & Development : Alexandra Zaïnal
Concept & original design : Baudouin d'Aumeries
Assistance for programming : Marc-Olivier Méhu
Technical & hardware support : Manuel Goepfert

Contact : metmap@orbifly.com




SOURCES & CREDITS :

   NOAA       Earth
Advisory